sensor_id;sensor_type;location;lat;lon;timestamp;temperature;humidity
26212;DHT22;13951;49.516;6.094;2023-06-22T00:37:52;21.30;99.90
26212;DHT22;13951;49.516;6.094;2023-06-22T00:40:33;21.40;99.90
26212;DHT22;13951;49.516;6.094;2023-06-22T00:43:06;21.40;99.90
26212;DHT22;13951;49.516;6.094;2023-06-22T00:45:40;21.40;99.90
26212;DHT22;13951;49.516;6.094;2023-06-22T00:48:15;21.30;99.90
26212;DHT22;13951;49.516;6.094;2023-06-22T00:50:49;21.10;99.90
26212;DHT22;13951;49.516;6.094;2023-06-22T00:53:24;20.80;99.90
26212;DHT22;13951;49.516;6.094;2023-06-22T00:55:59;20.80;99.90
26212;DHT22;13951;49.516;6.094;2023-06-22T00:58:33;20.80;99.90
26212;DHT22;13951;49.516;6.094;2023-06-22T01:01:06;20.80;99.90
26212;DHT22;13951;49.516;6.094;2023-06-22T01:03:39;20.90;99.90
26212;DHT22;13951;49.516;6.094;2023-06-22T01:06:17;20.90;99.90
26212;DHT22;13951;49.516;6.094;2023-06-22T01:09:00;20.90;99.90
26212;DHT22;13951;49.516;6.094;2023-06-22T01:11:44;21.00;99.90
26212;DHT22;13951;49.516;6.094;2023-06-22T01:14:27;20.90;99.90
26212;DHT22;13951;49.516;6.094;2023-06-22T01:17:03;20.90;99.90
26212;DHT22;13951;49.516;6.094;2023-06-22T01:19:48;21.00;99.90
26212;DHT22;13951;49.516;6.094;2023-06-22T01:22:31;20.90;99.90
26212;DHT22;13951;49.516;6.094;2023-06-22T01:25:28;21.00;99.90
26212;DHT22;13951;49.516;6.094;2023-06-22T01:28:36;21.00;99.90
26212;DHT22;13951;49.516;6.094;2023-06-22T01:31:36;21.00;99.90
26212;DHT22;13951;49.516;6.094;2023-06-22T01:34:10;21.00;99.90
26212;DHT22;13951;49.516;6.094;2023-06-22T01:36:44;21.00;99.90
26212;DHT22;13951;49.516;6.094;2023-06-22T01:39:18;21.00;99.90
26212;DHT22;13951;49.516;6.094;2023-06-22T01:41:53;21.00;99.90
26212;DHT22;13951;49.516;6.094;2023-06-22T01:44:27;20.90;99.90
26212;DHT22;13951;49.516;6.094;2023-06-22T01:47:01;20.80;99.90
26212;DHT22;13951;49.516;6.094;2023-06-22T01:49:35;20.80;99.90
26212;DHT22;13951;49.516;6.094;2023-06-22T01:52:11;20.80;99.90
26212;DHT22;13951;49.516;6.094;2023-06-22T01:54:45;20.80;99.90
26212;DHT22;13951;49.516;6.094;2023-06-22T01:57:18;20.70;99.90
26212;DHT22;13951;49.516;6.094;2023-06-22T02:03:13;20.70;99.90
26212;DHT22;13951;49.516;6.094;2023-06-22T02:05:59;20.70;99.90
26212;DHT22;13951;49.516;6.094;2023-06-22T02:08:41;20.70;99.90
26212;DHT22;13951;49.516;6.094;2023-06-22T02:11:20;20.80;99.90
26212;DHT22;13951;49.516;6.094;2023-06-22T02:13:57;20.80;99.90
26212;DHT22;13951;49.516;6.094;2023-06-22T02:16:31;20.80;99.90
26212;DHT22;13951;49.516;6.094;2023-06-22T02:19:05;20.80;99.90
26212;DHT22;13951;49.516;6.094;2023-06-22T02:21:39;20.90;99.90
26212;DHT22;13951;49.516;6.094;2023-06-22T02:24:12;20.90;99.90
26212;DHT22;13951;49.516;6.094;2023-06-22T02:26:45;20.90;99.90
26212;DHT22;13951;49.516;6.094;2023-06-22T02:29:18;20.90;99.90
26212;DHT22;13951;49.516;6.094;2023-06-22T02:31:52;20.90;99.90
26212;DHT22;13951;49.516;6.094;2023-06-22T02:34:25;20.90;99.90
26212;DHT22;13951;49.516;6.094;2023-06-22T02:36:58;20.90;99.90
26212;DHT22;13951;49.516;6.094;2023-06-22T02:39:31;21.00;99.90
26212;DHT22;13951;49.516;6.094;2023-06-22T02:42:04;20.90;99.90
26212;DHT22;13951;49.516;6.094;2023-06-22T02:44:38;20.90;99.90
26212;DHT22;13951;49.516;6.094;2023-06-22T03:07:46;20.90;99.90
26212;DHT22;13951;49.516;6.094;2023-06-22T03:10:19;20.90;99.90
26212;DHT22;13951;49.516;6.094;2023-06-22T03:12:53;21.00;99.90
26212;DHT22;13951;49.516;6.094;2023-06-22T03:15:26;21.00;99.90
26212;DHT22;13951;49.516;6.094;2023-06-22T03:18:02;20.90;99.90
26212;DHT22;13951;49.516;6.094;2023-06-22T03:20:35;21.00;99.90
26212;DHT22;13951;49.516;6.094;2023-06-22T03:23:08;20.90;99.90
26212;DHT22;13951;49.516;6.094;2023-06-22T03:25:44;21.00;99.90
26212;DHT22;13951;49.516;6.094;2023-06-22T03:28:18;21.00;99.90
26212;DHT22;13951;49.516;6.094;2023-06-22T03:30:51;20.90;99.90
26212;DHT22;13951;49.516;6.094;2023-06-22T03:33:24;21.00;99.90
26212;DHT22;13951;49.516;6.094;2023-06-22T03:35:57;20.90;99.90
26212;DHT22;13951;49.516;6.094;2023-06-22T03:38:31;20.90;99.90
26212;DHT22;13951;49.516;6.094;2023-06-22T03:41:04;20.80;99.90
26212;DHT22;13951;49.516;6.094;2023-06-22T03:43:37;20.80;99.90
26212;DHT22;13951;49.516;6.094;2023-06-22T03:46:10;20.80;99.90
26212;DHT22;13951;49.516;6.094;2023-06-22T03:56:23;20.90;99.90
26212;DHT22;13951;49.516;6.094;2023-06-22T03:58:56;20.90;99.90
26212;DHT22;13951;49.516;6.094;2023-06-22T04:01:30;20.80;99.90
26212;DHT22;13951;49.516;6.094;2023-06-22T04:04:03;20.80;99.90
26212;DHT22;13951;49.516;6.094;2023-06-22T04:06:36;20.80;99.90
26212;DHT22;13951;49.516;6.094;2023-06-22T04:09:09;20.90;99.90
26212;DHT22;13951;49.516;6.094;2023-06-22T04:11:42;20.90;99.90
26212;DHT22;13951;49.516;6.094;2023-06-22T04:14:16;20.80;99.90
26212;DHT22;13951;49.516;6.094;2023-06-22T04:16:49;20.80;99.90
26212;DHT22;13951;49.516;6.094;2023-06-22T04:19:22;20.80;99.90
26212;DHT22;13951;49.516;6.094;2023-06-22T04:21:55;20.80;99.90
26212;DHT22;13951;49.516;6.094;2023-06-22T04:24:29;20.80;99.90
26212;DHT22;13951;49.516;6.094;2023-06-22T04:27:02;20.70;99.90
26212;DHT22;13951;49.516;6.094;2023-06-22T04:29:35;21.70;99.90
26212;DHT22;13951;49.516;6.094;2023-06-22T04:32:09;21.10;99.90
26212;DHT22;13951;49.516;6.094;2023-06-22T04:34:45;20.70;99.90
26212;DHT22;13951;49.516;6.094;2023-06-22T04:37:18;20.70;99.90
26212;DHT22;13951;49.516;6.094;2023-06-22T04:39:51;20.70;99.90
26212;DHT22;13951;49.516;6.094;2023-06-22T06:15:10;21.90;99.90
26212;DHT22;13951;49.516;6.094;2023-06-22T06:17:51;22.20;99.90
26212;DHT22;13951;49.516;6.094;2023-06-22T06:20:26;22.20;99.90
26212;DHT22;13951;49.516;6.094;2023-06-22T06:23:01;22.30;99.90
26212;DHT22;13951;49.516;6.094;2023-06-22T06:25:34;22.30;99.90
26212;DHT22;13951;49.516;6.094;2023-06-22T06:28:07;22.30;99.90
26212;DHT22;13951;49.516;6.094;2023-06-22T06:30:41;22.20;99.90
26212;DHT22;13951;49.516;6.094;2023-06-22T06:33:14;22.30;99.90
26212;DHT22;13951;49.516;6.094;2023-06-22T06:35:47;22.20;99.90
26212;DHT22;13951;49.516;6.094;2023-06-22T06:38:20;22.20;99.90
26212;DHT22;13951;49.516;6.094;2023-06-22T06:40:53;22.20;99.90
26212;DHT22;13951;49.516;6.094;2023-06-22T06:43:26;22.20;99.90
26212;DHT22;13951;49.516;6.094;2023-06-22T06:45:59;22.20;99.90
26212;DHT22;13951;49.516;6.094;2023-06-22T06:48:33;22.30;99.90
26212;DHT22;13951;49.516;6.094;2023-06-22T06:51:06;22.40;99.90
26212;DHT22;13951;49.516;6.094;2023-06-22T06:53:42;22.50;99.90
26212;DHT22;13951;49.516;6.094;2023-06-22T06:56:16;22.50;99.90
26212;DHT22;13951;49.516;6.094;2023-06-22T06:58:50;22.60;99.90
26212;DHT22;13951;49.516;6.094;2023-06-22T07:32:15;24.00;99.90
26212;DHT22;13951;49.516;6.094;2023-06-22T07:34:48;23.90;99.90
26212;DHT22;13951;49.516;6.094;2023-06-22T07:37:21;23.70;99.90
26212;DHT22;13951;49.516;6.094;2023-06-22T07:39:55;23.40;99.90
26212;DHT22;13951;49.516;6.094;2023-06-22T07:42:31;23.30;99.90
26212;DHT22;13951;49.516;6.094;2023-06-22T07:45:06;23.30;99.90
26212;DHT22;13951;49.516;6.094;2023-06-22T07:47:41;23.20;99.90
26212;DHT22;13951;49.516;6.094;2023-06-22T07:50:14;23.20;99.90
26212;DHT22;13951;49.516;6.094;2023-06-22T07:52:47;23.10;99.90
26212;DHT22;13951;49.516;6.094;2023-06-22T07:55:21;23.20;99.90
26212;DHT22;13951;49.516;6.094;2023-06-22T07:57:54;23.20;99.90
26212;DHT22;13951;49.516;6.094;2023-06-22T08:00:27;23.20;99.90
26212;DHT22;13951;49.516;6.094;2023-06-22T08:03:00;23.20;99.90
26212;DHT22;13951;49.516;6.094;2023-06-22T08:05:36;23.20;99.90
26212;DHT22;13951;49.516;6.094;2023-06-22T08:08:09;23.10;99.90
26212;DHT22;13951;49.516;6.094;2023-06-22T08:10:43;23.00;99.90
26212;DHT22;13951;49.516;6.094;2023-06-22T08:13:16;23.00;99.90
26212;DHT22;13951;49.516;6.094;2023-06-22T08:15:49;22.90;99.90
26212;DHT22;13951;49.516;6.094;2023-06-22T08:18:22;22.90;99.90
26212;DHT22;13951;49.516;6.094;2023-06-22T08:20:55;22.80;99.90
26212;DHT22;13951;49.516;6.094;2023-06-22T08:23:28;22.80;99.90
26212;DHT22;13951;49.516;6.094;2023-06-22T08:26:01;22.90;99.90
26212;DHT22;13951;49.516;6.094;2023-06-22T08:28:34;22.90;99.90
26212;DHT22;13951;49.516;6.094;2023-06-22T08:31:07;22.90;99.90
26212;DHT22;13951;49.516;6.094;2023-06-22T08:33:41;22.90;99.90
26212;DHT22;13951;49.516;6.094;2023-06-22T08:38:55;22.70;99.90
26212;DHT22;13951;49.516;6.094;2023-06-22T08:41:30;22.60;99.90
26212;DHT22;13951;49.516;6.094;2023-06-22T08:44:04;22.50;99.90
26212;DHT22;13951;49.516;6.094;2023-06-22T08:46:37;22.50;99.90
26212;DHT22;13951;49.516;6.094;2023-06-22T08:49:11;22.40;99.90
26212;DHT22;13951;49.516;6.094;2023-06-22T08:51:44;22.30;99.90
26212;DHT22;13951;49.516;6.094;2023-06-22T08:54:21;22.20;99.90
26212;DHT22;13951;49.516;6.094;2023-06-22T08:56:54;22.10;99.90
26212;DHT22;13951;49.516;6.094;2023-06-22T08:59:27;22.10;99.90
26212;DHT22;13951;49.516;6.094;2023-06-22T09:02:01;22.00;99.90
26212;DHT22;13951;49.516;6.094;2023-06-22T09:04:34;22.00;99.90
26212;DHT22;13951;49.516;6.094;2023-06-22T09:07:07;22.00;99.90
26212;DHT22;13951;49.516;6.094;2023-06-22T09:09:41;21.90;99.90
26212;DHT22;13951;49.516;6.094;2023-06-22T09:12:14;21.90;99.90
26212;DHT22;13951;49.516;6.094;2023-06-22T09:17:22;21.80;99.90
26212;DHT22;13951;49.516;6.094;2023-06-22T09:19:55;21.70;99.90
26212;DHT22;13951;49.516;6.094;2023-06-22T09:22:28;21.70;99.90
26212;DHT22;13951;49.516;6.094;2023-06-22T09:25:02;21.80;99.90
26212;DHT22;13951;49.516;6.094;2023-06-22T09:27:39;21.90;99.90
26212;DHT22;13951;49.516;6.094;2023-06-22T09:30:12;21.90;99.90
26212;DHT22;13951;49.516;6.094;2023-06-22T09:32:45;21.90;99.90
26212;DHT22;13951;49.516;6.094;2023-06-22T09:37:54;22.10;99.90
26212;DHT22;13951;49.516;6.094;2023-06-22T09:40:28;22.10;99.90
26212;DHT22;13951;49.516;6.094;2023-06-22T09:43:01;22.20;99.90
26212;DHT22;13951;49.516;6.094;2023-06-22T09:48:08;22.40;99.90
26212;DHT22;13951;49.516;6.094;2023-06-22T09:50:46;22.40;99.90
26212;DHT22;13951;49.516;6.094;2023-06-22T09:53:19;22.60;99.90
26212;DHT22;13951;49.516;6.094;2023-06-22T09:55:52;22.80;99.90
26212;DHT22;13951;49.516;6.094;2023-06-22T09:58:25;22.90;99.90
26212;DHT22;13951;49.516;6.094;2023-06-22T10:00:58;23.10;99.90
26212;DHT22;13951;49.516;6.094;2023-06-22T10:03:31;23.10;99.90
26212;DHT22;13951;49.516;6.094;2023-06-22T10:06:05;23.20;99.90
26212;DHT22;13951;49.516;6.094;2023-06-22T10:11:13;23.40;99.90
26212;DHT22;13951;49.516;6.094;2023-06-22T10:13:49;23.60;99.90
26212;DHT22;13951;49.516;6.094;2023-06-22T10:16:29;23.50;99.90
26212;DHT22;13951;49.516;6.094;2023-06-22T10:19:02;23.50;99.90
26212;DHT22;13951;49.516;6.094;2023-06-22T10:21:36;23.40;99.90
26212;DHT22;13951;49.516;6.094;2023-06-22T10:24:09;23.20;99.90
26212;DHT22;13951;49.516;6.094;2023-06-22T10:26:43;23.10;99.90
26212;DHT22;13951;49.516;6.094;2023-06-22T10:29:16;23.10;99.90
26212;DHT22;13951;49.516;6.094;2023-06-22T10:31:50;23.20;99.90
26212;DHT22;13951;49.516;6.094;2023-06-22T10:34:23;23.40;99.90
26212;DHT22;13951;49.516;6.094;2023-06-22T10:36:56;23.60;99.90
26212;DHT22;13951;49.516;6.094;2023-06-22T11:15:25;25.30;99.90
26212;DHT22;13951;49.516;6.094;2023-06-22T11:17:59;25.30;99.90
26212;DHT22;13951;49.516;6.094;2023-06-22T11:20:33;25.40;99.90
26212;DHT22;13951;49.516;6.094;2023-06-22T11:25:41;25.60;99.90
26212;DHT22;13951;49.516;6.094;2023-06-22T11:28:15;25.60;99.90
26212;DHT22;13951;49.516;6.094;2023-06-22T11:30:48;25.50;99.90
26212;DHT22;13951;49.516;6.094;2023-06-22T11:33:24;25.60;99.90
26212;DHT22;13951;49.516;6.094;2023-06-22T11:35:57;25.80;99.90
26212;DHT22;13951;49.516;6.094;2023-06-22T11:38:30;25.90;99.90
26212;DHT22;13951;49.516;6.094;2023-06-22T11:41:03;25.90;99.90
26212;DHT22;13951;49.516;6.094;2023-06-22T11:43:36;26.00;99.90
26212;DHT22;13951;49.516;6.094;2023-06-22T11:46:10;26.10;99.90
26212;DHT22;13951;49.516;6.094;2023-06-22T11:48:43;26.20;99.90
26212;DHT22;13951;49.516;6.094;2023-06-22T11:51:16;26.30;99.90
26212;DHT22;13951;49.516;6.094;2023-06-22T11:53:49;26.30;99.90
26212;DHT22;13951;49.516;6.094;2023-06-22T11:56:23;26.40;99.90
26212;DHT22;13951;49.516;6.094;2023-06-22T11:58:56;26.50;99.90
26212;DHT22;13951;49.516;6.094;2023-06-22T12:01:30;26.40;99.90
26212;DHT22;13951;49.516;6.094;2023-06-22T12:04:03;26.40;99.90
26212;DHT22;13951;49.516;6.094;2023-06-22T12:06:38;26.40;99.90
26212;DHT22;13951;49.516;6.094;2023-06-22T12:09:14;26.50;99.90
26212;DHT22;13951;49.516;6.094;2023-06-22T12:11:48;26.60;99.90
26212;DHT22;13951;49.516;6.094;2023-06-22T12:14:21;26.80;99.90
26212;DHT22;13951;49.516;6.094;2023-06-22T12:16:54;26.90;99.90
26212;DHT22;13951;49.516;6.094;2023-06-22T12:19:27;26.90;99.90
26212;DHT22;13951;49.516;6.094;2023-06-22T12:22:00;27.00;99.90
26212;DHT22;13951;49.516;6.094;2023-06-22T12:24:35;27.10;99.90
26212;DHT22;13951;49.516;6.094;2023-06-22T12:27:11;27.20;99.90
26212;DHT22;13951;49.516;6.094;2023-06-22T12:29:47;27.20;99.90
26212;DHT22;13951;49.516;6.094;2023-06-22T12:32:20;27.30;99.90
26212;DHT22;13951;49.516;6.094;2023-06-22T12:34:54;27.20;99.90
26212;DHT22;13951;49.516;6.094;2023-06-22T12:37:28;27.10;99.90
26212;DHT22;13951;49.516;6.094;2023-06-22T12:40:01;27.00;99.90
26212;DHT22;13951;49.516;6.094;2023-06-22T12:42:36;26.90;99.90
26212;DHT22;13951;49.516;6.094;2023-06-22T12:45:10;26.80;99.90
26212;DHT22;13951;49.516;6.094;2023-06-22T12:47:43;26.60;99.90
26212;DHT22;13951;49.516;6.094;2023-06-22T12:50:16;26.40;99.90
26212;DHT22;13951;49.516;6.094;2023-06-22T12:52:49;26.20;99.90
26212;DHT22;13951;49.516;6.094;2023-06-22T13:00:30;25.50;99.90
26212;DHT22;13951;49.516;6.094;2023-06-22T13:03:04;25.40;99.90
26212;DHT22;13951;49.516;6.094;2023-06-22T13:05:37;25.20;99.90
26212;DHT22;13951;49.516;6.094;2023-06-22T13:08:11;25.00;99.90
26212;DHT22;13951;49.516;6.094;2023-06-22T13:10:44;24.40;99.90
26212;DHT22;13951;49.516;6.094;2023-06-22T13:13:17;23.90;99.90
26212;DHT22;13951;49.516;6.094;2023-06-22T13:15:51;24.00;99.90
26212;DHT22;13951;49.516;6.094;2023-06-22T13:18:26;23.80;99.90
26212;DHT22;13951;49.516;6.094;2023-06-22T13:21:00;23.60;99.90
26212;DHT22;13951;49.516;6.094;2023-06-22T13:23:33;23.40;99.90
26212;DHT22;13951;49.516;6.094;2023-06-22T13:26:07;23.20;99.90
26212;DHT22;13951;49.516;6.094;2023-06-22T13:28:40;23.10;99.90
26212;DHT22;13951;49.516;6.094;2023-06-22T13:31:13;23.00;99.90
26212;DHT22;13951;49.516;6.094;2023-06-22T13:33:46;22.80;99.90
26212;DHT22;13951;49.516;6.094;2023-06-22T13:36:20;22.80;99.90
26212;DHT22;13951;49.516;6.094;2023-06-22T13:38:56;22.70;99.90
26212;DHT22;13951;49.516;6.094;2023-06-22T13:41:29;22.60;99.90
26212;DHT22;13951;49.516;6.094;2023-06-22T13:44:02;22.60;99.90
26212;DHT22;13951;49.516;6.094;2023-06-22T13:46:36;22.60;99.90
26212;DHT22;13951;49.516;6.094;2023-06-22T13:49:09;22.60;99.90
26212;DHT22;13951;49.516;6.094;2023-06-22T13:51:42;22.50;99.90
26212;DHT22;13951;49.516;6.094;2023-06-22T13:54:16;22.60;99.90
26212;DHT22;13951;49.516;6.094;2023-06-22T13:57:02;22.70;99.90
26212;DHT22;13951;49.516;6.094;2023-06-22T13:59:35;22.80;99.90
26212;DHT22;13951;49.516;6.094;2023-06-22T14:02:08;22.90;99.90
26212;DHT22;13951;49.516;6.094;2023-06-22T14:04:41;22.90;99.90
26212;DHT22;13951;49.516;6.094;2023-06-22T14:07:14;23.10;99.90
26212;DHT22;13951;49.516;6.094;2023-06-22T14:09:47;23.20;99.90
26212;DHT22;13951;49.516;6.094;2023-06-22T14:12:21;23.10;99.90
26212;DHT22;13951;49.516;6.094;2023-06-22T14:14:54;23.40;99.90
26212;DHT22;13951;49.516;6.094;2023-06-22T14:17:27;23.50;99.90
26212;DHT22;13951;49.516;6.094;2023-06-22T14:20:00;23.60;99.90
26212;DHT22;13951;49.516;6.094;2023-06-22T14:22:33;23.60;99.90
26212;DHT22;13951;49.516;6.094;2023-06-22T15:31:57;24.20;99.90
26212;DHT22;13951;49.516;6.094;2023-06-22T15:34:30;24.20;99.90
26212;DHT22;13951;49.516;6.094;2023-06-22T15:37:03;24.10;99.90
26212;DHT22;13951;49.516;6.094;2023-06-22T15:39:36;24.00;99.90
26212;DHT22;13951;49.516;6.094;2023-06-22T15:42:09;24.00;99.90
26212;DHT22;13951;49.516;6.094;2023-06-22T15:44:42;24.00;99.90
26212;DHT22;13951;49.516;6.094;2023-06-22T15:47:15;23.90;99.90
26212;DHT22;13951;49.516;6.094;2023-06-22T15:49:50;23.90;99.90
26212;DHT22;13951;49.516;6.094;2023-06-22T15:52:23;23.90;99.90
26212;DHT22;13951;49.516;6.094;2023-06-22T15:54:57;23.80;99.90
26212;DHT22;13951;49.516;6.094;2023-06-22T15:57:33;23.70;99.90
26212;DHT22;13951;49.516;6.094;2023-06-22T16:00:07;23.60;99.90
26212;DHT22;13951;49.516;6.094;2023-06-22T16:05:14;23.40;99.90
26212;DHT22;13951;49.516;6.094;2023-06-22T16:07:49;23.30;99.90
26212;DHT22;13951;49.516;6.094;2023-06-22T16:10:22;23.20;99.90
26212;DHT22;13951;49.516;6.094;2023-06-22T16:12:55;23.10;99.90
26212;DHT22;13951;49.516;6.094;2023-06-22T16:15:28;23.10;99.90
26212;DHT22;13951;49.516;6.094;2023-06-22T16:18:01;23.10;99.90
26212;DHT22;13951;49.516;6.094;2023-06-22T16:20:35;23.00;99.90
26212;DHT22;13951;49.516;6.094;2023-06-22T16:23:08;23.00;99.90
26212;DHT22;13951;49.516;6.094;2023-06-22T16:25:42;22.90;99.90
26212;DHT22;13951;49.516;6.094;2023-06-22T16:28:17;22.90;99.90
26212;DHT22;13951;49.516;6.094;2023-06-22T16:30:50;22.80;99.90
26212;DHT22;13951;49.516;6.094;2023-06-22T16:33:25;22.60;99.90
26212;DHT22;13951;49.516;6.094;2023-06-22T16:35:58;22.50;99.90
26212;DHT22;13951;49.516;6.094;2023-06-22T16:38:31;22.50;99.90
26212;DHT22;13951;49.516;6.094;2023-06-22T16:41:06;22.40;99.90
26212;DHT22;13951;49.516;6.094;2023-06-22T16:43:40;22.30;99.90
26212;DHT22;13951;49.516;6.094;2023-06-22T16:46:13;22.30;99.90
26212;DHT22;13951;49.516;6.094;2023-06-22T16:48:50;22.30;99.90
26212;DHT22;13951;49.516;6.094;2023-06-22T16:51:25;22.40;99.90
26212;DHT22;13951;49.516;6.094;2023-06-22T16:53:59;22.40;99.90
26212;DHT22;13951;49.516;6.094;2023-06-22T16:56:32;22.40;99.90
26212;DHT22;13951;49.516;6.094;2023-06-22T16:59:05;22.30;99.90
26212;DHT22;13951;49.516;6.094;2023-06-22T17:01:49;22.30;99.90
26212;DHT22;13951;49.516;6.094;2023-06-22T17:04:25;22.20;99.90
26212;DHT22;13951;49.516;6.094;2023-06-22T17:07:06;22.20;99.90
26212;DHT22;13951;49.516;6.094;2023-06-22T17:09:43;22.10;99.90
26212;DHT22;13951;49.516;6.094;2023-06-22T17:12:18;22.00;99.90
26212;DHT22;13951;49.516;6.094;2023-06-22T17:14:52;22.00;99.90
26212;DHT22;13951;49.516;6.094;2023-06-22T17:17:25;21.90;99.90
26212;DHT22;13951;49.516;6.094;2023-06-22T17:20:02;22.00;99.90
26212;DHT22;13951;49.516;6.094;2023-06-22T17:22:36;21.90;99.90
26212;DHT22;13951;49.516;6.094;2023-06-22T17:25:11;21.90;99.90
26212;DHT22;13951;49.516;6.094;2023-06-22T17:27:49;21.90;99.90
26212;DHT22;13951;49.516;6.094;2023-06-22T17:30:23;21.90;99.90
26212;DHT22;13951;49.516;6.094;2023-06-22T17:32:57;21.90;99.90
26212;DHT22;13951;49.516;6.094;2023-06-22T17:35:31;21.90;99.90
26212;DHT22;13951;49.516;6.094;2023-06-22T17:38:05;21.80;99.90
26212;DHT22;13951;49.516;6.094;2023-06-22T17:40:40;21.90;99.90
26212;DHT22;13951;49.516;6.094;2023-06-22T17:43:13;21.80;99.90
26212;DHT22;13951;49.516;6.094;2023-06-22T17:45:46;21.80;99.90
26212;DHT22;13951;49.516;6.094;2023-06-22T17:48:20;21.70;99.90
26212;DHT22;13951;49.516;6.094;2023-06-22T17:50:56;21.70;99.90
26212;DHT22;13951;49.516;6.094;2023-06-22T17:53:29;21.70;99.90
26212;DHT22;13951;49.516;6.094;2023-06-22T17:56:03;21.60;99.90
26212;DHT22;13951;49.516;6.094;2023-06-22T17:58:36;21.60;99.90
26212;DHT22;13951;49.516;6.094;2023-06-22T18:01:09;21.60;99.90
26212;DHT22;13951;49.516;6.094;2023-06-22T18:03:44;21.60;99.90
26212;DHT22;13951;49.516;6.094;2023-06-22T18:06:17;21.60;99.90
26212;DHT22;13951;49.516;6.094;2023-06-22T18:08:53;21.60;99.90
26212;DHT22;13951;49.516;6.094;2023-06-22T18:11:44;21.60;99.90
26212;DHT22;13951;49.516;6.094;2023-06-22T18:14:19;21.50;99.90
26212;DHT22;13951;49.516;6.094;2023-06-22T18:16:53;21.50;99.90
26212;DHT22;13951;49.516;6.094;2023-06-22T18:19:27;21.40;99.90
26212;DHT22;13951;49.516;6.094;2023-06-22T18:22:02;21.50;99.90
26212;DHT22;13951;49.516;6.094;2023-06-22T18:24:36;21.50;99.90
26212;DHT22;13951;49.516;6.094;2023-06-22T18:27:12;21.40;99.90
26212;DHT22;13951;49.516;6.094;2023-06-22T18:29:48;21.30;99.90
26212;DHT22;13951;49.516;6.094;2023-06-22T18:32:24;21.30;99.90
26212;DHT22;13951;49.516;6.094;2023-06-22T18:34:58;21.30;99.90
26212;DHT22;13951;49.516;6.094;2023-06-22T18:37:33;21.30;99.90
26212;DHT22;13951;49.516;6.094;2023-06-22T18:40:08;21.30;99.90
26212;DHT22;13951;49.516;6.094;2023-06-22T18:42:46;21.30;99.90
26212;DHT22;13951;49.516;6.094;2023-06-22T18:45:24;21.30;99.90
26212;DHT22;13951;49.516;6.094;2023-06-22T18:48:05;21.30;99.90
26212;DHT22;13951;49.516;6.094;2023-06-22T18:50:43;21.30;99.90
26212;DHT22;13951;49.516;6.094;2023-06-22T18:53:27;21.30;99.90
26212;DHT22;13951;49.516;6.094;2023-06-22T18:56:11;21.20;99.90
26212;DHT22;13951;49.516;6.094;2023-06-22T18:58:56;21.20;99.90
26212;DHT22;13951;49.516;6.094;2023-06-22T19:01:30;21.20;99.90
26212;DHT22;13951;49.516;6.094;2023-06-22T19:04:14;21.20;99.90
26212;DHT22;13951;49.516;6.094;2023-06-22T19:09:25;21.10;99.90
26212;DHT22;13951;49.516;6.094;2023-06-22T19:12:17;21.00;99.90
26212;DHT22;13951;49.516;6.094;2023-06-22T19:15:10;20.90;99.90
26212;DHT22;13951;49.516;6.094;2023-06-22T19:17:48;20.90;99.90
26212;DHT22;13951;49.516;6.094;2023-06-22T19:20:31;20.80;99.90
26212;DHT22;13951;49.516;6.094;2023-06-22T19:23:05;20.70;99.90
26212;DHT22;13951;49.516;6.094;2023-06-22T19:25:45;20.60;99.90
26212;DHT22;13951;49.516;6.094;2023-06-22T19:28:18;20.50;99.90
26212;DHT22;13951;49.516;6.094;2023-06-22T19:30:58;20.50;99.90
26212;DHT22;13951;49.516;6.094;2023-06-22T19:33:32;20.50;99.90
26212;DHT22;13951;49.516;6.094;2023-06-22T19:36:05;20.50;99.90
26212;DHT22;13951;49.516;6.094;2023-06-22T19:38:39;20.40;99.90
26212;DHT22;13951;49.516;6.094;2023-06-22T19:43:46;20.20;99.90
26212;DHT22;13951;49.516;6.094;2023-06-22T19:46:29;20.20;99.90
26212;DHT22;13951;49.516;6.094;2023-06-22T19:49:03;20.20;99.90
26212;DHT22;13951;49.516;6.094;2023-06-22T19:51:36;20.10;99.90
26212;DHT22;13951;49.516;6.094;2023-06-22T19:54:10;20.10;99.90
26212;DHT22;13951;49.516;6.094;2023-06-22T19:56:49;20.10;99.90
26212;DHT22;13951;49.516;6.094;2023-06-22T20:01:56;19.80;99.90
26212;DHT22;13951;49.516;6.094;2023-06-22T20:04:30;19.80;99.90
26212;DHT22;13951;49.516;6.094;2023-06-22T20:07:06;19.70;99.90
26212;DHT22;13951;49.516;6.094;2023-06-22T20:09:40;19.70;99.90
26212;DHT22;13951;49.516;6.094;2023-06-22T20:12:24;19.60;99.90
26212;DHT22;13951;49.516;6.094;2023-06-22T20:15:25;19.60;99.90
26212;DHT22;13951;49.516;6.094;2023-06-22T20:20:42;19.40;99.90
26212;DHT22;13951;49.516;6.094;2023-06-22T20:23:21;19.50;99.90
26212;DHT22;13951;49.516;6.094;2023-06-22T20:25:54;19.40;99.90
26212;DHT22;13951;49.516;6.094;2023-06-22T20:28:28;19.30;99.90
26212;DHT22;13951;49.516;6.094;2023-06-22T20:33:42;19.20;99.90
26212;DHT22;13951;49.516;6.094;2023-06-22T20:36:15;19.20;99.90
26212;DHT22;13951;49.516;6.094;2023-06-22T20:38:50;19.20;99.90
26212;DHT22;13951;49.516;6.094;2023-06-22T20:41:24;19.10;99.90
26212;DHT22;13951;49.516;6.094;2023-06-22T20:43:58;19.10;99.90
26212;DHT22;13951;49.516;6.094;2023-06-22T20:46:31;19.30;99.90
26212;DHT22;13951;49.516;6.094;2023-06-22T20:49:04;19.10;99.90
26212;DHT22;13951;49.516;6.094;2023-06-22T20:51:39;19.10;99.90
26212;DHT22;13951;49.516;6.094;2023-06-22T20:54:12;19.00;99.90
26212;DHT22;13951;49.516;6.094;2023-06-22T20:56:45;19.00;99.90
26212;DHT22;13951;49.516;6.094;2023-06-22T20:59:19;19.00;99.90
26212;DHT22;13951;49.516;6.094;2023-06-22T21:01:52;18.90;99.90
26212;DHT22;13951;49.516;6.094;2023-06-22T21:04:29;18.90;99.90
26212;DHT22;13951;49.516;6.094;2023-06-22T21:07:02;19.00;99.90
26212;DHT22;13951;49.516;6.094;2023-06-22T21:09:35;19.00;99.90
26212;DHT22;13951;49.516;6.094;2023-06-22T21:12:23;19.00;99.90
26212;DHT22;13951;49.516;6.094;2023-06-22T21:14:56;19.00;99.90
26212;DHT22;13951;49.516;6.094;2023-06-22T21:17:30;19.10;99.90
26212;DHT22;13951;49.516;6.094;2023-06-22T21:20:04;19.10;99.90
26212;DHT22;13951;49.516;6.094;2023-06-22T21:22:39;19.00;99.90
26212;DHT22;13951;49.516;6.094;2023-06-22T21:25:13;19.00;99.90
26212;DHT22;13951;49.516;6.094;2023-06-22T21:27:47;19.00;99.90
26212;DHT22;13951;49.516;6.094;2023-06-22T21:30:20;19.00;99.90
26212;DHT22;13951;49.516;6.094;2023-06-22T21:32:53;19.00;99.90
26212;DHT22;13951;49.516;6.094;2023-06-22T21:35:27;19.00;99.90
26212;DHT22;13951;49.516;6.094;2023-06-22T21:38:00;19.00;99.90
26212;DHT22;13951;49.516;6.094;2023-06-22T21:40:33;19.00;99.90
26212;DHT22;13951;49.516;6.094;2023-06-22T21:43:06;19.00;99.90
26212;DHT22;13951;49.516;6.094;2023-06-22T21:45:40;19.00;99.90
26212;DHT22;13951;49.516;6.094;2023-06-22T21:48:13;19.00;99.90